sensor_id;sensor_type;location;lat;lon;timestamp;pressure;altitude;pressure_sealevel;temperature;humidity
20612;BME280;10465;42.686;23.364;2022-11-20T00:02:14;94222.81;;;15.17;83.55
20612;BME280;10465;42.686;23.364;2022-11-20T00:04:40;94219.66;;;15.31;79.87
20612;BME280;10465;42.686;23.364;2022-11-20T00:07:05;94286.84;;;15.72;80.66
20612;BME280;10465;42.686;23.364;2022-11-20T00:09:31;94300.19;;;15.72;81.66
20612;BME280;10465;42.686;23.364;2022-11-20T00:11:56;94261.59;;;15.50;81.95
20612;BME280;10465;42.686;23.364;2022-11-20T00:14:22;94297.63;;;15.79;81.65
20612;BME280;10465;42.686;23.364;2022-11-20T00:16:47;94269.22;;;15.51;81.97
20612;BME280;10465;42.686;23.364;2022-11-20T00:19:12;94280.75;;;15.55;83.25
20612;BME280;10465;42.686;23.364;2022-11-20T00:21:38;94294.91;;;15.75;83.03
20612;BME280;10465;42.686;23.364;2022-11-20T00:24:03;94298.63;;;15.90;82.69
20612;BME280;10465;42.686;23.364;2022-11-20T00:26:29;94286.47;;;15.93;82.20
20612;BME280;10465;42.686;23.364;2022-11-20T00:28:57;94273.28;;;15.80;82.45
20612;BME280;10465;42.686;23.364;2022-11-20T00:31:23;94296.72;;;15.91;82.22
20612;BME280;10465;42.686;23.364;2022-11-20T00:33:49;94295.13;;;15.86;82.55
20612;BME280;10465;42.686;23.364;2022-11-20T00:36:17;94258.88;;;15.85;82.34
20612;BME280;10465;42.686;23.364;2022-11-20T00:38:43;94238.81;;;15.72;81.15
20612;BME280;10465;42.686;23.364;2022-11-20T00:41:11;94261.94;;;16.06;80.89
20612;BME280;10465;42.686;23.364;2022-11-20T00:43:37;94275.66;;;16.05;81.26
20612;BME280;10465;42.686;23.364;2022-11-20T00:46:05;94286.41;;;16.09;81.12
20612;BME280;10465;42.686;23.364;2022-11-20T00:48:31;94280.41;;;15.96;80.22
20612;BME280;10465;42.686;23.364;2022-11-20T00:50:57;94288.16;;;16.01;80.02
20612;BME280;10465;42.686;23.364;2022-11-20T00:53:23;94274.06;;;16.00;79.54
20612;BME280;10465;42.686;23.364;2022-11-20T00:55:56;94283.72;;;16.09;78.63
20612;BME280;10465;42.686;23.364;2022-11-20T00:58:23;94322.50;;;16.02;77.33
20612;BME280;10465;42.686;23.364;2022-11-20T01:00:49;94299.94;;;16.00;76.37
20612;BME280;10465;42.686;23.364;2022-11-20T01:03:19;94259.44;;;15.94;76.18
20612;BME280;10465;42.686;23.364;2022-11-20T01:05:44;94234.63;;;15.94;75.61
20612;BME280;10465;42.686;23.364;2022-11-20T01:08:10;94287.13;;;16.28;73.37
20612;BME280;10465;42.686;23.364;2022-11-20T01:10:36;94266.72;;;16.17;73.14
20612;BME280;10465;42.686;23.364;2022-11-20T01:13:01;94279.38;;;16.43;71.20
20612;BME280;10465;42.686;23.364;2022-11-20T01:15:45;94279.56;;;16.53;70.58
20612;BME280;10465;42.686;23.364;2022-11-20T01:18:11;94269.34;;;16.59;70.62
20612;BME280;10465;42.686;23.364;2022-11-20T01:20:37;94261.44;;;16.66;69.63
20612;BME280;10465;42.686;23.364;2022-11-20T01:23:03;94264.91;;;16.93;64.84
20612;BME280;10465;42.686;23.364;2022-11-20T01:25:28;94221.66;;;16.84;63.90
20612;BME280;10465;42.686;23.364;2022-11-20T01:27:54;94232.25;;;17.03;62.84
20612;BME280;10465;42.686;23.364;2022-11-20T01:30:20;94238.25;;;17.23;62.70
20612;BME280;10465;42.686;23.364;2022-11-20T01:32:45;94219.63;;;17.30;62.96
20612;BME280;10465;42.686;23.364;2022-11-20T01:35:10;94237.59;;;17.34;63.22
20612;BME280;10465;42.686;23.364;2022-11-20T01:37:36;94228.50;;;17.38;64.07
20612;BME280;10465;42.686;23.364;2022-11-20T01:40:02;94235.13;;;17.48;64.60
20612;BME280;10465;42.686;23.364;2022-11-20T01:42:27;94242.28;;;17.40;65.01
20612;BME280;10465;42.686;23.364;2022-11-20T01:48:15;94215.97;;;16.89;68.19
20612;BME280;10465;42.686;23.364;2022-11-20T01:50:42;94244.22;;;16.64;69.35
20612;BME280;10465;42.686;23.364;2022-11-20T01:53:10;94248.66;;;17.02;64.51
20612;BME280;10465;42.686;23.364;2022-11-20T01:55:43;94247.47;;;17.26;61.73
20612;BME280;10465;42.686;23.364;2022-11-20T01:58:10;94231.25;;;17.45;61.01
20612;BME280;10465;42.686;23.364;2022-11-20T02:00:37;94222.88;;;17.47;61.24
20612;BME280;10465;42.686;23.364;2022-11-20T02:03:05;94232.53;;;17.55;61.18
20612;BME280;10465;42.686;23.364;2022-11-20T02:05:39;94198.56;;;17.29;61.16
20612;BME280;10465;42.686;23.364;2022-11-20T02:08:07;94222.94;;;17.54;61.44
20612;BME280;10465;42.686;23.364;2022-11-20T02:10:34;94237.59;;;17.64;61.55
20612;BME280;10465;42.686;23.364;2022-11-20T02:13:00;94212.28;;;17.58;61.16
20612;BME280;10465;42.686;23.364;2022-11-20T02:15:44;94236.13;;;17.70;60.71
20612;BME280;10465;42.686;23.364;2022-11-20T02:18:11;94249.91;;;17.68;61.08
20612;BME280;10465;42.686;23.364;2022-11-20T02:20:40;94238.78;;;17.66;60.85
20612;BME280;10465;42.686;23.364;2022-11-20T02:23:49;94252.63;;;17.72;61.44
20612;BME280;10465;42.686;23.364;2022-11-20T02:26:16;94214.19;;;17.57;61.28
20612;BME280;10465;42.686;23.364;2022-11-20T02:28:43;94230.34;;;17.64;60.98
20612;BME280;10465;42.686;23.364;2022-11-20T02:31:08;94203.44;;;17.53;61.76
20612;BME280;10465;42.686;23.364;2022-11-20T02:33:34;94247.66;;;17.74;61.94
20612;BME280;10465;42.686;23.364;2022-11-20T02:35:59;94197.13;;;17.35;61.71
20612;BME280;10465;42.686;23.364;2022-11-20T02:38:25;94191.53;;;17.14;62.63
20612;BME280;10465;42.686;23.364;2022-11-20T02:40:51;94247.78;;;17.51;63.03
20612;BME280;10465;42.686;23.364;2022-11-20T02:43:16;94252.22;;;17.40;62.19
20612;BME280;10465;42.686;23.364;2022-11-20T02:45:42;94230.38;;;17.34;61.65
20612;BME280;10465;42.686;23.364;2022-11-20T02:48:07;94276.50;;;17.58;61.20
20612;BME280;10465;42.686;23.364;2022-11-20T02:50:36;94268.59;;;17.65;61.74
20612;BME280;10465;42.686;23.364;2022-11-20T02:53:02;94266.84;;;17.76;60.22
20612;BME280;10465;42.686;23.364;2022-11-20T02:55:27;94254.84;;;17.66;60.37
20612;BME280;10465;42.686;23.364;2022-11-20T02:57:52;94282.94;;;17.79;60.40
20612;BME280;10465;42.686;23.364;2022-11-20T03:00:18;94250.91;;;17.57;60.60
20612;BME280;10465;42.686;23.364;2022-11-20T03:02:43;94291.06;;;17.87;60.85
20612;BME280;10465;42.686;23.364;2022-11-20T03:05:09;94287.78;;;18.00;60.62
20612;BME280;10465;42.686;23.364;2022-11-20T03:07:35;94269.16;;;17.77;61.02
20612;BME280;10465;42.686;23.364;2022-11-20T03:10:00;94253.28;;;17.65;61.62
20612;BME280;10465;42.686;23.364;2022-11-20T03:12:25;94293.00;;;17.90;61.39
20612;BME280;10465;42.686;23.364;2022-11-20T03:14:51;94322.16;;;17.95;61.71
20612;BME280;10465;42.686;23.364;2022-11-20T03:17:16;94297.19;;;17.87;61.25
20612;BME280;10465;42.686;23.364;2022-11-20T03:19:42;94306.47;;;17.97;61.59
20612;BME280;10465;42.686;23.364;2022-11-20T03:22:07;94290.59;;;17.81;61.74
20612;BME280;10465;42.686;23.364;2022-11-20T03:24:33;94327.84;;;17.93;61.80
20612;BME280;10465;42.686;23.364;2022-11-20T03:26:58;94316.28;;;17.86;62.20
20612;BME280;10465;42.686;23.364;2022-11-20T03:29:24;94293.81;;;17.64;61.91
20612;BME280;10465;42.686;23.364;2022-11-20T03:31:49;94310.38;;;18.03;61.43
20612;BME280;10465;42.686;23.364;2022-11-20T03:34:15;94271.34;;;17.72;61.27
20612;BME280;10465;42.686;23.364;2022-11-20T03:36:41;94329.13;;;18.03;61.04
20612;BME280;10465;42.686;23.364;2022-11-20T03:39:08;94322.91;;;17.95;61.58
20612;BME280;10465;42.686;23.364;2022-11-20T03:41:39;94325.50;;;17.88;61.92
20612;BME280;10465;42.686;23.364;2022-11-20T03:44:07;94339.84;;;18.07;60.99
20612;BME280;10465;42.686;23.364;2022-11-20T03:46:33;94334.06;;;18.01;61.52
20612;BME280;10465;42.686;23.364;2022-11-20T03:48:59;94327.63;;;18.06;61.07
20612;BME280;10465;42.686;23.364;2022-11-20T03:51:26;94331.91;;;18.14;60.61
20612;BME280;10465;42.686;23.364;2022-11-20T03:53:53;94291.78;;;17.84;61.28
20612;BME280;10465;42.686;23.364;2022-11-20T03:56:24;94317.22;;;18.00;61.62
20612;BME280;10465;42.686;23.364;2022-11-20T03:58:50;94323.50;;;18.12;61.08
20612;BME280;10465;42.686;23.364;2022-11-20T04:01:20;94297.97;;;17.88;61.41
20612;BME280;10465;42.686;23.364;2022-11-20T04:03:47;94290.59;;;17.81;61.80
20612;BME280;10465;42.686;23.364;2022-11-20T04:06:20;94282.72;;;17.65;61.81
20612;BME280;10465;42.686;23.364;2022-11-20T04:08:46;94272.41;;;17.64;61.35
20612;BME280;10465;42.686;23.364;2022-11-20T04:11:19;94330.56;;;17.97;60.67
20612;BME280;10465;42.686;23.364;2022-11-20T04:13:47;94333.16;;;17.90;61.26
20612;BME280;10465;42.686;23.364;2022-11-20T04:16:12;94296.84;;;17.62;61.56
20612;BME280;10465;42.686;23.364;2022-11-20T04:18:38;94305.00;;;17.73;61.56
20612;BME280;10465;42.686;23.364;2022-11-20T04:21:04;94309.66;;;17.76;61.21
20612;BME280;10465;42.686;23.364;2022-11-20T04:23:30;94339.66;;;17.89;60.74
20612;BME280;10465;42.686;23.364;2022-11-20T04:26:01;94346.91;;;17.88;61.05
20612;BME280;10465;42.686;23.364;2022-11-20T04:28:27;94321.16;;;17.76;60.51
20612;BME280;10465;42.686;23.364;2022-11-20T04:30:52;94342.78;;;17.94;60.20
20612;BME280;10465;42.686;23.364;2022-11-20T04:33:18;94332.16;;;18.01;59.76
20612;BME280;10465;42.686;23.364;2022-11-20T04:35:46;94302.94;;;17.89;59.82
20612;BME280;10465;42.686;23.364;2022-11-20T04:38:12;94338.16;;;17.91;60.56
20612;BME280;10465;42.686;23.364;2022-11-20T04:40:39;94312.16;;;17.65;61.12
20612;BME280;10465;42.686;23.364;2022-11-20T04:43:04;94336.94;;;17.85;61.21
20612;BME280;10465;42.686;23.364;2022-11-20T04:45:30;94332.28;;;17.78;61.69
20612;BME280;10465;42.686;23.364;2022-11-20T04:47:55;94321.53;;;17.75;61.87
20612;BME280;10465;42.686;23.364;2022-11-20T04:50:20;94289.66;;;17.66;62.23
20612;BME280;10465;42.686;23.364;2022-11-20T04:52:46;94305.09;;;17.76;62.32
20612;BME280;10465;42.686;23.364;2022-11-20T04:55:11;94322.69;;;18.08;61.58
20612;BME280;10465;42.686;23.364;2022-11-20T04:57:37;94319.56;;;18.06;61.27
20612;BME280;10465;42.686;23.364;2022-11-20T05:00:03;94320.63;;;17.97;61.34
20612;BME280;10465;42.686;23.364;2022-11-20T05:02:30;94311.16;;;18.03;61.27
20612;BME280;10465;42.686;23.364;2022-11-20T05:04:56;94292.00;;;18.01;61.44
20612;BME280;10465;42.686;23.364;2022-11-20T05:07:21;94283.56;;;17.99;61.51
20612;BME280;10465;42.686;23.364;2022-11-20T05:09:47;94298.25;;;18.13;61.45
20612;BME280;10465;42.686;23.364;2022-11-20T05:12:12;94290.16;;;17.75;61.27
20612;BME280;10465;42.686;23.364;2022-11-20T05:14:38;94290.28;;;17.86;61.48
20612;BME280;10465;42.686;23.364;2022-11-20T05:17:03;94278.91;;;17.63;62.03
20612;BME280;10465;42.686;23.364;2022-11-20T05:19:28;94285.28;;;17.85;62.15
20612;BME280;10465;42.686;23.364;2022-11-20T05:21:54;94274.19;;;17.83;61.99
20612;BME280;10465;42.686;23.364;2022-11-20T05:24:19;94284.19;;;17.89;62.26
20612;BME280;10465;42.686;23.364;2022-11-20T05:26:45;94240.91;;;17.53;63.67
20612;BME280;10465;42.686;23.364;2022-11-20T05:29:11;94254.06;;;17.66;64.61
20612;BME280;10465;42.686;23.364;2022-11-20T05:31:39;94249.09;;;17.34;67.87
20612;BME280;10465;42.686;23.364;2022-11-20T05:34:05;94249.94;;;17.42;67.76
20612;BME280;10465;42.686;23.364;2022-11-20T05:36:30;94289.31;;;17.71;68.22
20612;BME280;10465;42.686;23.364;2022-11-20T05:38:55;94289.66;;;17.66;68.67
20612;BME280;10465;42.686;23.364;2022-11-20T05:41:21;94301.38;;;17.58;69.56
20612;BME280;10465;42.686;23.364;2022-11-20T05:43:48;94289.03;;;17.50;69.97
20612;BME280;10465;42.686;23.364;2022-11-20T05:46:15;94266.78;;;17.42;70.04
20612;BME280;10465;42.686;23.364;2022-11-20T05:48:42;94267.44;;;17.36;70.40
20612;BME280;10465;42.686;23.364;2022-11-20T05:51:10;94294.75;;;17.48;70.80
20612;BME280;10465;42.686;23.364;2022-11-20T05:53:36;94301.97;;;17.44;71.17
20612;BME280;10465;42.686;23.364;2022-11-20T05:56:07;94293.81;;;17.37;71.23
20612;BME280;10465;42.686;23.364;2022-11-20T05:58:33;94300.53;;;17.50;70.64
20612;BME280;10465;42.686;23.364;2022-11-20T06:01:12;94299.78;;;17.53;70.27
20612;BME280;10465;42.686;23.364;2022-11-20T06:03:39;94308.22;;;17.55;69.34
20612;BME280;10465;42.686;23.364;2022-11-20T06:06:06;94308.63;;;17.58;68.86
20612;BME280;10465;42.686;23.364;2022-11-20T06:08:32;94296.75;;;17.55;68.44
20612;BME280;10465;42.686;23.364;2022-11-20T06:10:58;94287.22;;;17.58;68.47
20612;BME280;10465;42.686;23.364;2022-11-20T06:13:24;94287.97;;;17.54;68.13
20612;BME280;10465;42.686;23.364;2022-11-20T06:15:51;94313.31;;;17.64;68.28
20612;BME280;10465;42.686;23.364;2022-11-20T06:18:16;94324.19;;;17.75;67.75
20612;BME280;10465;42.686;23.364;2022-11-20T06:20:42;94258.75;;;17.42;68.09
20612;BME280;10465;42.686;23.364;2022-11-20T06:23:07;94251.03;;;17.37;68.17
20612;BME280;10465;42.686;23.364;2022-11-20T06:25:33;94315.78;;;17.76;67.56
20612;BME280;10465;42.686;23.364;2022-11-20T06:28:02;94299.50;;;17.62;67.70
20612;BME280;10465;42.686;23.364;2022-11-20T06:30:27;94320.09;;;17.85;67.30
20612;BME280;10465;42.686;23.364;2022-11-20T06:32:52;94305.00;;;17.73;66.77
20612;BME280;10465;42.686;23.364;2022-11-20T06:35:18;94284.28;;;17.66;66.76
20612;BME280;10465;42.686;23.364;2022-11-20T06:37:43;94323.25;;;17.94;66.89
20612;BME280;10465;42.686;23.364;2022-11-20T06:40:09;94307.91;;;17.87;67.16
20612;BME280;10465;42.686;23.364;2022-11-20T06:42:35;94308.25;;;17.86;67.37
20612;BME280;10465;42.686;23.364;2022-11-20T06:45:00;94311.84;;;17.97;66.44
20612;BME280;10465;42.686;23.364;2022-11-20T06:47:26;94313.38;;;17.98;66.53
20612;BME280;10465;42.686;23.364;2022-11-20T06:49:51;94314.19;;;18.02;65.72
20612;BME280;10465;42.686;23.364;2022-11-20T06:52:16;94294.56;;;17.94;65.24
20612;BME280;10465;42.686;23.364;2022-11-20T06:54:42;94301.16;;;18.00;65.33
20612;BME280;10465;42.686;23.364;2022-11-20T06:57:07;94329.13;;;18.03;65.66
20612;BME280;10465;42.686;23.364;2022-11-20T06:59:33;94284.09;;;17.52;66.21
20612;BME280;10465;42.686;23.364;2022-11-20T07:01:58;94311.31;;;17.58;66.54
20612;BME280;10465;42.686;23.364;2022-11-20T07:04:24;94320.78;;;17.78;65.63
20612;BME280;10465;42.686;23.364;2022-11-20T07:06:50;94321.91;;;17.77;65.09
20612;BME280;10465;42.686;23.364;2022-11-20T07:09:15;94314.56;;;17.74;65.06
20612;BME280;10465;42.686;23.364;2022-11-20T07:11:41;94298.69;;;17.58;65.06
20612;BME280;10465;42.686;23.364;2022-11-20T07:14:07;94320.56;;;17.64;64.83
20612;BME280;10465;42.686;23.364;2022-11-20T07:16:32;94344.00;;;17.74;65.04
20612;BME280;10465;42.686;23.364;2022-11-20T07:18:59;94354.91;;;17.85;64.74
20612;BME280;10465;42.686;23.364;2022-11-20T07:21:24;94347.31;;;17.90;64.57
20612;BME280;10465;42.686;23.364;2022-11-20T07:23:50;94340.06;;;17.91;64.41
20612;BME280;10465;42.686;23.364;2022-11-20T07:26:15;94347.50;;;18.04;64.47
20612;BME280;10465;42.686;23.364;2022-11-20T07:28:44;94354.41;;;18.06;63.50
20612;BME280;10465;42.686;23.364;2022-11-20T07:31:10;94333.63;;;17.95;63.60
20612;BME280;10465;42.686;23.364;2022-11-20T07:33:35;94338.41;;;18.13;63.41
20612;BME280;10465;42.686;23.364;2022-11-20T07:36:01;94350.72;;;18.17;63.58
20612;BME280;10465;42.686;23.364;2022-11-20T07:38:26;94357.22;;;18.16;62.90
20612;BME280;10465;42.686;23.364;2022-11-20T07:40:56;94354.88;;;18.11;63.18
20612;BME280;10465;42.686;23.364;2022-11-20T07:43:23;94346.72;;;18.04;62.98
20612;BME280;10465;42.686;23.364;2022-11-20T07:45:48;94324.53;;;18.03;62.58
20612;BME280;10465;42.686;23.364;2022-11-20T07:48:14;94343.81;;;18.16;62.74
20612;BME280;10465;42.686;23.364;2022-11-20T07:50:39;94342.19;;;18.08;63.37
20612;BME280;10465;42.686;23.364;2022-11-20T07:53:05;94339.50;;;18.08;62.86
20612;BME280;10465;42.686;23.364;2022-11-20T07:55:31;94356.34;;;18.09;63.25
20612;BME280;10465;42.686;23.364;2022-11-20T07:57:57;94352.19;;;18.15;62.88
20612;BME280;10465;42.686;23.364;2022-11-20T08:00:24;94362.19;;;18.18;63.51
20612;BME280;10465;42.686;23.364;2022-11-20T08:02:49;94360.59;;;18.13;63.74
20612;BME280;10465;42.686;23.364;2022-11-20T08:05:15;94320.69;;;18.01;63.71
20612;BME280;10465;42.686;23.364;2022-11-20T08:07:42;94339.66;;;18.22;63.54
20612;BME280;10465;42.686;23.364;2022-11-20T08:10:11;94336.59;;;18.20;63.52
20612;BME280;10465;42.686;23.364;2022-11-20T08:12:43;94352.78;;;18.31;63.04
20612;BME280;10465;42.686;23.364;2022-11-20T08:15:27;94314.25;;;18.09;63.08
20612;BME280;10465;42.686;23.364;2022-11-20T08:18:08;94326.22;;;18.15;63.09
20612;BME280;10465;42.686;23.364;2022-11-20T08:20:34;94342.00;;;18.24;62.86
20612;BME280;10465;42.686;23.364;2022-11-20T08:23:04;94329.72;;;18.23;62.63
20612;BME280;10465;42.686;23.364;2022-11-20T08:25:33;94321.66;;;18.19;62.38
20612;BME280;10465;42.686;23.364;2022-11-20T08:28:00;94289.16;;;17.87;62.51
20612;BME280;10465;42.686;23.364;2022-11-20T08:30:26;94338.13;;;18.21;62.99
20612;BME280;10465;42.686;23.364;2022-11-20T08:32:52;94341.56;;;18.22;62.92
20612;BME280;10465;42.686;23.364;2022-11-20T08:35:18;94303.38;;;17.91;63.43
20612;BME280;10465;42.686;23.364;2022-11-20T08:37:47;94306.34;;;17.86;64.31
20612;BME280;10465;42.686;23.364;2022-11-20T08:40:14;94292.66;;;17.91;64.15
20612;BME280;10465;42.686;23.364;2022-11-20T08:42:47;94248.28;;;17.60;63.76
20612;BME280;10465;42.686;23.364;2022-11-20T08:45:12;94350.78;;;18.24;63.84
20612;BME280;10465;42.686;23.364;2022-11-20T08:47:38;94261.97;;;17.55;63.95
20612;BME280;10465;42.686;23.364;2022-11-20T08:50:04;94345.59;;;18.05;63.98
20612;BME280;10465;42.686;23.364;2022-11-20T08:52:29;94329.66;;;17.86;64.05
20612;BME280;10465;42.686;23.364;2022-11-20T08:54:55;94391.25;;;18.16;64.50
20612;BME280;10465;42.686;23.364;2022-11-20T08:57:20;94385.53;;;18.17;64.27
20612;BME280;10465;42.686;23.364;2022-11-20T08:59:45;94375.16;;;18.12;64.87
20612;BME280;10465;42.686;23.364;2022-11-20T09:02:11;94350.66;;;18.14;65.67
20612;BME280;10465;42.686;23.364;2022-11-20T09:04:37;94389.97;;;18.36;65.41
20612;BME280;10465;42.686;23.364;2022-11-20T09:07:02;94383.28;;;18.23;66.16
20612;BME280;10465;42.686;23.364;2022-11-20T09:09:28;94400.66;;;18.33;66.04
20612;BME280;10465;42.686;23.364;2022-11-20T09:11:54;94381.41;;;18.23;66.68
20612;BME280;10465;42.686;23.364;2022-11-20T09:14:19;94392.16;;;18.27;67.18
20612;BME280;10465;42.686;23.364;2022-11-20T09:16:45;94408.19;;;18.23;68.30
20612;BME280;10465;42.686;23.364;2022-11-20T09:19:11;94385.91;;;18.16;68.79
20612;BME280;10465;42.686;23.364;2022-11-20T09:21:37;94384.00;;;18.16;69.66
20612;BME280;10465;42.686;23.364;2022-11-20T09:24:03;94403.59;;;18.24;70.48
20612;BME280;10465;42.686;23.364;2022-11-20T09:26:29;94253.16;;;17.24;71.47
20612;BME280;10465;42.686;23.364;2022-11-20T09:28:54;94407.03;;;17.94;69.22
20612;BME280;10465;42.686;23.364;2022-11-20T09:31:25;94311.56;;;16.96;71.33
20612;BME280;10465;42.686;23.364;2022-11-20T09:33:51;94372.03;;;17.53;70.00
20612;BME280;10465;42.686;23.364;2022-11-20T09:36:16;94382.44;;;17.59;70.05
20612;BME280;10465;42.686;23.364;2022-11-20T09:38:47;94367.97;;;17.63;70.97
20612;BME280;10465;42.686;23.364;2022-11-20T09:49:56;94357.41;;;17.74;73.13
20612;BME280;10465;42.686;23.364;2022-11-20T09:57:37;94344.09;;;17.77;78.45
20612;BME280;10465;42.686;23.364;2022-11-20T10:00:08;94324.44;;;17.66;80.58
20612;BME280;10465;42.686;23.364;2022-11-20T10:03:01;94342.19;;;17.78;80.51
20612;BME280;10465;42.686;23.364;2022-11-20T10:05:37;94341.78;;;17.76;79.54
20612;BME280;10465;42.686;23.364;2022-11-20T10:10:45;94341.78;;;17.76;78.18
20612;BME280;10465;42.686;23.364;2022-11-20T10:24:41;94305.22;;;17.61;77.97
20612;BME280;10465;42.686;23.364;2022-11-20T10:29:48;94280.38;;;17.30;79.36
20612;BME280;10465;42.686;23.364;2022-11-20T10:32:34;94305.66;;;17.36;79.90
20612;BME280;10465;42.686;23.364;2022-11-20T10:37:58;94309.66;;;17.49;80.21
20612;BME280;10465;42.686;23.364;2022-11-20T10:40:46;94312.28;;;17.46;80.12
20612;BME280;10465;42.686;23.364;2022-11-20T10:43:29;94280.16;;;17.16;80.45
20612;BME280;10465;42.686;23.364;2022-11-20T10:46:01;94277.31;;;17.05;80.61
20612;BME280;10465;42.686;23.364;2022-11-20T10:48:31;94272.72;;;17.02;81.01
20612;BME280;10465;42.686;23.364;2022-11-20T10:53:57;94310.84;;;17.22;81.92
20612;BME280;10465;42.686;23.364;2022-11-20T10:56:36;94311.84;;;17.14;83.19
20612;BME280;10465;42.686;23.364;2022-11-20T10:59:27;94332.50;;;17.17;84.32
20612;BME280;10465;42.686;23.364;2022-11-20T11:01:54;94300.09;;;16.95;85.23
20612;BME280;10465;42.686;23.364;2022-11-20T11:07:23;94305.91;;;17.01;87.11
20612;BME280;10465;42.686;23.364;2022-11-20T11:09:55;94373.13;;;17.22;88.64
20612;BME280;10465;42.686;23.364;2022-11-20T11:12:23;94379.75;;;17.09;89.65
20612;BME280;10465;42.686;23.364;2022-11-20T11:14:55;94371.50;;;16.52;87.93
20612;BME280;10465;42.686;23.364;2022-11-20T11:17:25;94406.25;;;16.14;92.80
20612;BME280;10465;42.686;23.364;2022-11-20T11:22:49;94379.13;;;15.41;90.69
20612;BME280;10465;42.686;23.364;2022-11-20T11:25:35;94361.28;;;15.10;80.12
20612;BME280;10465;42.686;23.364;2022-11-20T11:28:21;94386.59;;;15.51;82.36
20612;BME280;10465;42.686;23.364;2022-11-20T11:30:47;94374.69;;;15.29;80.96
20612;BME280;10465;42.686;23.364;2022-11-20T11:33:21;94382.28;;;15.12;80.83
20612;BME280;10465;42.686;23.364;2022-11-20T11:35:59;94356.47;;;14.68;82.36
20612;BME280;10465;42.686;23.364;2022-11-20T11:38:35;94331.19;;;14.78;82.13
20612;BME280;10465;42.686;23.364;2022-11-20T11:41:03;94382.06;;;14.73;82.52
20612;BME280;10465;42.686;23.364;2022-11-20T11:43:32;94377.69;;;14.65;83.42
20612;BME280;10465;42.686;23.364;2022-11-20T11:46:37;94345.56;;;14.45;85.70
20612;BME280;10465;42.686;23.364;2022-11-20T11:49:14;94376.75;;;14.45;85.95
20612;BME280;10465;42.686;23.364;2022-11-20T11:54:43;94391.59;;;14.46;86.04
20612;BME280;10465;42.686;23.364;2022-11-20T12:00:08;94359.63;;;14.30;87.28
20612;BME280;10465;42.686;23.364;2022-11-20T12:05:24;94343.66;;;14.30;86.50
20612;BME280;10465;42.686;23.364;2022-11-20T12:10:57;94350.78;;;14.70;81.60
20612;BME280;10465;42.686;23.364;2022-11-20T12:16:03;94342.19;;;14.61;78.89
20612;BME280;10465;42.686;23.364;2022-11-20T12:18:30;94355.63;;;14.96;80.15
20612;BME280;10465;42.686;23.364;2022-11-20T12:21:11;94359.72;;;14.77;82.38
20612;BME280;10465;42.686;23.364;2022-11-20T12:26:35;94371.59;;;14.64;80.82
20612;BME280;10465;42.686;23.364;2022-11-20T12:29:19;94301.66;;;14.23;81.13
20612;BME280;10465;42.686;23.364;2022-11-20T12:39:49;94254.56;;;13.96;83.15
20612;BME280;10465;42.686;23.364;2022-11-20T12:53:40;94299.03;;;15.02;86.32
20612;BME280;10465;42.686;23.364;2022-11-20T12:56:28;94306.50;;;15.13;88.62
20612;BME280;10465;42.686;23.364;2022-11-20T13:01:53;94312.00;;;15.20;89.31
20612;BME280;10465;42.686;23.364;2022-11-20T13:06:47;94258.16;;;14.79;88.75
20612;BME280;10465;42.686;23.364;2022-11-20T13:09:15;94280.16;;;14.76;89.90
20612;BME280;10465;42.686;23.364;2022-11-20T13:11:50;94257.63;;;14.73;89.85
20612;BME280;10465;42.686;23.364;2022-11-20T13:19:59;94225.16;;;14.36;90.63
20612;BME280;10465;42.686;23.364;2022-11-20T13:22:31;94302.75;;;14.66;90.82
20612;BME280;10465;42.686;23.364;2022-11-20T13:25:10;94315.28;;;14.81;90.26
20612;BME280;10465;42.686;23.364;2022-11-20T13:27:47;94304.81;;;14.89;89.09
20612;BME280;10465;42.686;23.364;2022-11-20T13:30:17;94221.38;;;14.69;88.25
20612;BME280;10465;42.686;23.364;2022-11-20T13:32:50;94258.09;;;14.95;86.60
20612;BME280;10465;42.686;23.364;2022-11-20T13:35:36;94316.78;;;14.63;87.52
20612;BME280;10465;42.686;23.364;2022-11-20T13:38:10;94352.09;;;14.92;87.83
20612;BME280;10465;42.686;23.364;2022-11-20T13:43:33;94311.19;;;14.84;88.95
20612;BME280;10465;42.686;23.364;2022-11-20T13:46:05;94256.88;;;14.57;89.30
20612;BME280;10465;42.686;23.364;2022-11-20T13:48:34;94296.34;;;15.02;88.61
20612;BME280;10465;42.686;23.364;2022-11-20T13:51:21;94291.81;;;15.03;88.93
20612;BME280;10465;42.686;23.364;2022-11-20T13:54:04;94339.19;;;15.09;90.63
20612;BME280;10465;42.686;23.364;2022-11-20T14:04:57;94305.94;;;15.03;88.55
20612;BME280;10465;42.686;23.364;2022-11-20T14:07:27;94322.63;;;15.36;88.17
20612;BME280;10465;42.686;23.364;2022-11-20T14:09:57;94335.44;;;15.30;89.23
20612;BME280;10465;42.686;23.364;2022-11-20T14:12:29;94302.22;;;15.08;90.03
20612;BME280;10465;42.686;23.364;2022-11-20T14:14:55;94281.69;;;14.93;89.74
20612;BME280;10465;42.686;23.364;2022-11-20T14:19:54;94299.09;;;15.22;90.97
20612;BME280;10465;42.686;23.364;2022-11-20T14:22:25;94301.16;;;15.28;89.28
20612;BME280;10465;42.686;23.364;2022-11-20T14:25:20;94285.88;;;15.09;90.55
20612;BME280;10465;42.686;23.364;2022-11-20T14:27:53;94303.38;;;15.26;90.93
20612;BME280;10465;42.686;23.364;2022-11-20T14:33:10;94300.13;;;15.17;90.87
20612;BME280;10465;42.686;23.364;2022-11-20T14:35:47;94274.91;;;14.95;91.33
20612;BME280;10465;42.686;23.364;2022-11-20T14:38:18;94317.84;;;15.25;91.73
20612;BME280;10465;42.686;23.364;2022-11-20T14:40:46;94316.47;;;15.16;91.37
20612;BME280;10465;42.686;23.364;2022-11-20T14:46:01;94331.16;;;15.25;91.87
20612;BME280;10465;42.686;23.364;2022-11-20T14:48:37;94326.69;;;15.14;92.68
20612;BME280;10465;42.686;23.364;2022-11-20T14:51:04;94294.91;;;14.89;92.72